Aérodrome :
LOGIN :

S'inscrire | Disclaimer

   EN    FR    IT 

 










Légende :    VFR   VFR Marginal   IFR   IFR Intensif   IFR Très Intensif
Visi : 
Plafond : 
>= 8 km
>= 3000ft
5 à 8 km
1000 à 3000 ft
1500m à 5 km
500 à 1000 ft
800 à 1500m
200 à 500 ft
< 800m
< 200 ft
Symboles :   Orages  Brouillard  Fortes neiges  Fortes précipitations  Vent > 20 kt
SIGMETs :   Divers  Orages  Givrage  Turbulence  Onde Orograph.  Cendres Volcan.






- Altitude de l'aérodrome : 336 ft
- Code IATA : GCI


EGJB - Guernsey

DERNIER METAR :
  • 271350Z 32013KT 9999 SCT023 08/02 Q1008

METARs EXPIRÉS :
  • 271320Z 32015G25KT 9999 SCT023 08/03 Q1007
  • 271250Z 32017KT 9999 BKN023 08/02 Q1007
  • 271220Z 32017G27KT 9999 BKN023 07/02 Q1006
  • 271150Z 34019KT 9999 BKN018 07/03 Q1005
  • 271120Z 33018G29KT 9999 BKN015 07/03 Q1004

TAF TAF EGJB
Valide du 27 à 12h jusqu'au 27 à 21h UTC


271057Z 2712/2721 33020KT 9999 SCT018
TEMPO 2712/2715 34022G32KT
BECMG 2716/2718 32010KT
ATIS : +44 1481 238 957



MET'MAP, la Météo Aéronautique d'un coup d'oeil ! - Copyright ORBIFLY Décembre 2007 - Disclaimer

ORBIFLY MET'MAP TEAM :

Programmation & Développement : Alexandra Zaïnal
Sur une idée originale de : Baudouin d'Aumeries
Assistance à la programmation : Marc-Olivier Méhu
Soutien technique & logistique : Manuel Goepfert

Contact : metmap@orbifly.com




SOURCES & CREDITS :

   NOAA